sensor_id;sensor_type;location;lat;lon;timestamp;temperature;humidity
3086;DHT22;52812;48.960;9.108;2024-03-22T00:00:57;6.40;99.90
3086;DHT22;52812;48.960;9.108;2024-03-22T00:03:22;6.40;99.90
3086;DHT22;52812;48.960;9.108;2024-03-22T00:05:48;6.40;99.90
3086;DHT22;52812;48.960;9.108;2024-03-22T00:08:14;6.40;99.90
3086;DHT22;52812;48.960;9.108;2024-03-22T00:10:39;6.30;99.90
3086;DHT22;52812;48.960;9.108;2024-03-22T00:13:05;6.30;99.90
3086;DHT22;52812;48.960;9.108;2024-03-22T00:15:31;6.20;99.90
3086;DHT22;52812;48.960;9.108;2024-03-22T00:17:56;6.10;99.90
3086;DHT22;52812;48.960;9.108;2024-03-22T00:20:22;6.20;99.90
3086;DHT22;52812;48.960;9.108;2024-03-22T00:22:47;6.20;99.90
3086;DHT22;52812;48.960;9.108;2024-03-22T00:25:13;6.20;99.90
3086;DHT22;52812;48.960;9.108;2024-03-22T00:27:39;6.20;99.90
3086;DHT22;52812;48.960;9.108;2024-03-22T00:30:05;6.20;99.90
3086;DHT22;52812;48.960;9.108;2024-03-22T00:32:30;6.10;99.90
3086;DHT22;52812;48.960;9.108;2024-03-22T00:34:56;6.10;99.90
3086;DHT22;52812;48.960;9.108;2024-03-22T00:37:23;6.00;99.90
3086;DHT22;52812;48.960;9.108;2024-03-22T00:39:48;5.90;99.90
3086;DHT22;52812;48.960;9.108;2024-03-22T00:42:14;5.90;99.90
3086;DHT22;52812;48.960;9.108;2024-03-22T00:44:40;5.80;99.90
3086;DHT22;52812;48.960;9.108;2024-03-22T00:47:05;5.70;99.90
3086;DHT22;52812;48.960;9.108;2024-03-22T00:49:31;5.60;99.90
3086;DHT22;52812;48.960;9.108;2024-03-22T00:51:57;5.60;99.90
3086;DHT22;52812;48.960;9.108;2024-03-22T00:54:23;5.50;99.90
3086;DHT22;52812;48.960;9.108;2024-03-22T00:56:49;5.40;99.90
3086;DHT22;52812;48.960;9.108;2024-03-22T00:59:14;5.50;99.90
3086;DHT22;52812;48.960;9.108;2024-03-22T01:01:40;5.50;99.90
3086;DHT22;52812;48.960;9.108;2024-03-22T01:04:06;5.60;99.90
3086;DHT22;52812;48.960;9.108;2024-03-22T01:06:34;5.60;99.90
3086;DHT22;52812;48.960;9.108;2024-03-22T01:09:00;5.50;99.90
3086;DHT22;52812;48.960;9.108;2024-03-22T01:11:26;5.50;99.90
3086;DHT22;52812;48.960;9.108;2024-03-22T01:13:51;5.50;99.90
3086;DHT22;52812;48.960;9.108;2024-03-22T01:16:17;5.40;99.90
3086;DHT22;52812;48.960;9.108;2024-03-22T01:18:43;5.50;99.90
3086;DHT22;52812;48.960;9.108;2024-03-22T01:21:08;5.40;99.90
3086;DHT22;52812;48.960;9.108;2024-03-22T01:23:34;5.50;99.90
3086;DHT22;52812;48.960;9.108;2024-03-22T01:25:59;5.50;99.90
3086;DHT22;52812;48.960;9.108;2024-03-22T01:28:25;5.50;99.90
3086;DHT22;52812;48.960;9.108;2024-03-22T01:30:50;5.50;99.90
3086;DHT22;52812;48.960;9.108;2024-03-22T01:33:16;5.50;99.90
3086;DHT22;52812;48.960;9.108;2024-03-22T01:35:42;5.40;99.90
3086;DHT22;52812;48.960;9.108;2024-03-22T01:38:07;5.40;99.90
3086;DHT22;52812;48.960;9.108;2024-03-22T01:40:33;5.30;99.90
3086;DHT22;52812;48.960;9.108;2024-03-22T01:43:00;5.20;99.90
3086;DHT22;52812;48.960;9.108;2024-03-22T01:45:25;5.00;99.90
3086;DHT22;52812;48.960;9.108;2024-03-22T01:47:52;5.00;99.90
3086;DHT22;52812;48.960;9.108;2024-03-22T01:50:22;5.00;99.90
3086;DHT22;52812;48.960;9.108;2024-03-22T01:52:48;5.10;99.90
3086;DHT22;52812;48.960;9.108;2024-03-22T01:55:14;5.10;99.90
3086;DHT22;52812;48.960;9.108;2024-03-22T01:57:40;5.20;99.90
3086;DHT22;52812;48.960;9.108;2024-03-22T02:00:06;5.20;99.90
3086;DHT22;52812;48.960;9.108;2024-03-22T02:02:34;5.10;99.90
3086;DHT22;52812;48.960;9.108;2024-03-22T02:05:11;5.10;99.90
3086;DHT22;52812;48.960;9.108;2024-03-22T02:07:37;5.10;99.90
3086;DHT22;52812;48.960;9.108;2024-03-22T02:10:04;5.20;99.90
3086;DHT22;52812;48.960;9.108;2024-03-22T02:12:29;5.20;99.90
3086;DHT22;52812;48.960;9.108;2024-03-22T02:14:57;5.10;99.90
3086;DHT22;52812;48.960;9.108;2024-03-22T02:17:23;5.10;99.90
3086;DHT22;52812;48.960;9.108;2024-03-22T02:19:49;5.10;99.90
3086;DHT22;52812;48.960;9.108;2024-03-22T02:22:15;5.20;99.90
3086;DHT22;52812;48.960;9.108;2024-03-22T02:24:40;5.10;99.90
3086;DHT22;52812;48.960;9.108;2024-03-22T02:27:06;5.00;99.90
3086;DHT22;52812;48.960;9.108;2024-03-22T02:29:32;4.90;99.90
3086;DHT22;52812;48.960;9.108;2024-03-22T02:31:57;4.80;99.90
3086;DHT22;52812;48.960;9.108;2024-03-22T02:34:24;4.80;99.90
3086;DHT22;52812;48.960;9.108;2024-03-22T02:36:49;4.70;99.90
3086;DHT22;52812;48.960;9.108;2024-03-22T02:39:15;4.80;99.90
3086;DHT22;52812;48.960;9.108;2024-03-22T02:41:41;4.70;99.90
3086;DHT22;52812;48.960;9.108;2024-03-22T02:44:06;4.70;99.90
3086;DHT22;52812;48.960;9.108;2024-03-22T02:46:32;4.60;99.90
3086;DHT22;52812;48.960;9.108;2024-03-22T02:48:58;4.60;99.90
3086;DHT22;52812;48.960;9.108;2024-03-22T02:51:23;4.70;99.90
3086;DHT22;52812;48.960;9.108;2024-03-22T02:53:50;4.70;99.90
3086;DHT22;52812;48.960;9.108;2024-03-22T02:56:15;4.70;99.90
3086;DHT22;52812;48.960;9.108;2024-03-22T02:58:41;4.70;99.90
3086;DHT22;52812;48.960;9.108;2024-03-22T03:01:07;4.80;99.90
3086;DHT22;52812;48.960;9.108;2024-03-22T03:03:32;4.90;99.90
3086;DHT22;52812;48.960;9.108;2024-03-22T03:05:58;4.80;99.90
3086;DHT22;52812;48.960;9.108;2024-03-22T03:08:23;4.80;99.90
3086;DHT22;52812;48.960;9.108;2024-03-22T03:10:49;4.80;99.90
3086;DHT22;52812;48.960;9.108;2024-03-22T03:13:15;4.80;99.90
3086;DHT22;52812;48.960;9.108;2024-03-22T03:15:41;4.80;99.90
3086;DHT22;52812;48.960;9.108;2024-03-22T03:18:06;4.90;99.90
3086;DHT22;52812;48.960;9.108;2024-03-22T03:20:32;4.90;99.90
3086;DHT22;52812;48.960;9.108;2024-03-22T03:22:57;4.90;99.90
3086;DHT22;52812;48.960;9.108;2024-03-22T03:25:25;4.90;99.90
3086;DHT22;52812;48.960;9.108;2024-03-22T03:27:51;4.90;99.90
3086;DHT22;52812;48.960;9.108;2024-03-22T03:30:17;4.90;99.90
3086;DHT22;52812;48.960;9.108;2024-03-22T03:32:42;4.90;99.90
3086;DHT22;52812;48.960;9.108;2024-03-22T03:35:08;5.00;99.90
3086;DHT22;52812;48.960;9.108;2024-03-22T03:37:34;5.00;99.90
3086;DHT22;52812;48.960;9.108;2024-03-22T03:39:59;5.00;99.90
3086;DHT22;52812;48.960;9.108;2024-03-22T03:42:25;5.00;99.90
3086;DHT22;52812;48.960;9.108;2024-03-22T03:44:51;5.00;99.90
3086;DHT22;52812;48.960;9.108;2024-03-22T03:47:16;5.10;99.90
3086;DHT22;52812;48.960;9.108;2024-03-22T03:49:42;5.00;99.90
3086;DHT22;52812;48.960;9.108;2024-03-22T03:52:10;5.00;99.90
3086;DHT22;52812;48.960;9.108;2024-03-22T03:54:35;5.10;99.90
3086;DHT22;52812;48.960;9.108;2024-03-22T03:57:01;5.10;99.90
3086;DHT22;52812;48.960;9.108;2024-03-22T03:59:27;5.00;99.90
3086;DHT22;52812;48.960;9.108;2024-03-22T04:01:52;5.00;99.90
3086;DHT22;52812;48.960;9.108;2024-03-22T04:04:21;5.10;99.90
3086;DHT22;52812;48.960;9.108;2024-03-22T04:06:47;5.00;99.90
3086;DHT22;52812;48.960;9.108;2024-03-22T04:09:12;5.10;99.90
3086;DHT22;52812;48.960;9.108;2024-03-22T04:11:38;5.10;99.90
3086;DHT22;52812;48.960;9.108;2024-03-22T04:14:05;5.10;99.90
3086;DHT22;52812;48.960;9.108;2024-03-22T04:16:31;5.20;99.90
3086;DHT22;52812;48.960;9.108;2024-03-22T04:18:57;5.30;99.90
3086;DHT22;52812;48.960;9.108;2024-03-22T04:21:22;5.40;99.90
3086;DHT22;52812;48.960;9.108;2024-03-22T04:23:48;5.40;99.90
3086;DHT22;52812;48.960;9.108;2024-03-22T04:26:15;5.40;99.90
3086;DHT22;52812;48.960;9.108;2024-03-22T04:28:40;5.50;99.90
3086;DHT22;52812;48.960;9.108;2024-03-22T04:31:08;5.50;99.90
3086;DHT22;52812;48.960;9.108;2024-03-22T04:33:37;5.60;99.90
3086;DHT22;52812;48.960;9.108;2024-03-22T04:36:03;5.50;99.90
3086;DHT22;52812;48.960;9.108;2024-03-22T04:38:29;5.60;99.90
3086;DHT22;52812;48.960;9.108;2024-03-22T04:40:56;5.60;99.90
3086;DHT22;52812;48.960;9.108;2024-03-22T04:43:23;5.60;99.90
3086;DHT22;52812;48.960;9.108;2024-03-22T04:45:50;5.70;99.90
3086;DHT22;52812;48.960;9.108;2024-03-22T04:48:20;5.70;99.90
3086;DHT22;52812;48.960;9.108;2024-03-22T04:50:47;5.80;99.90
3086;DHT22;52812;48.960;9.108;2024-03-22T04:53:16;5.80;99.90
3086;DHT22;52812;48.960;9.108;2024-03-22T04:55:43;5.70;99.90
3086;DHT22;52812;48.960;9.108;2024-03-22T04:58:20;5.70;99.90
3086;DHT22;52812;48.960;9.108;2024-03-22T05:00:47;5.80;99.90
3086;DHT22;52812;48.960;9.108;2024-03-22T05:03:13;5.80;99.90
3086;DHT22;52812;48.960;9.108;2024-03-22T05:05:39;5.80;99.90
3086;DHT22;52812;48.960;9.108;2024-03-22T05:08:06;5.80;99.90
3086;DHT22;52812;48.960;9.108;2024-03-22T05:10:32;5.90;99.90
3086;DHT22;52812;48.960;9.108;2024-03-22T05:12:58;5.90;99.90
3086;DHT22;52812;48.960;9.108;2024-03-22T05:15:24;5.90;99.90
3086;DHT22;52812;48.960;9.108;2024-03-22T05:17:51;6.00;99.90
3086;DHT22;52812;48.960;9.108;2024-03-22T05:20:17;5.90;99.90
3086;DHT22;52812;48.960;9.108;2024-03-22T05:22:43;5.90;99.90
3086;DHT22;52812;48.960;9.108;2024-03-22T05:25:08;5.90;99.90
3086;DHT22;52812;48.960;9.108;2024-03-22T05:27:35;5.90;99.90
3086;DHT22;52812;48.960;9.108;2024-03-22T05:30:00;5.90;99.90
3086;DHT22;52812;48.960;9.108;2024-03-22T05:32:26;5.90;99.90
3086;DHT22;52812;48.960;9.108;2024-03-22T05:34:53;5.90;99.90
3086;DHT22;52812;48.960;9.108;2024-03-22T05:37:18;5.90;99.90
3086;DHT22;52812;48.960;9.108;2024-03-22T05:39:44;5.90;99.90
3086;DHT22;52812;48.960;9.108;2024-03-22T05:42:09;6.00;99.90
3086;DHT22;52812;48.960;9.108;2024-03-22T05:44:35;6.00;99.90
3086;DHT22;52812;48.960;9.108;2024-03-22T05:47:01;6.10;99.90
3086;DHT22;52812;48.960;9.108;2024-03-22T05:49:30;6.20;99.90
3086;DHT22;52812;48.960;9.108;2024-03-22T05:51:55;6.20;99.90
3086;DHT22;52812;48.960;9.108;2024-03-22T05:54:21;6.30;99.90
3086;DHT22;52812;48.960;9.108;2024-03-22T05:56:46;6.30;99.90
3086;DHT22;52812;48.960;9.108;2024-03-22T05:59:12;6.40;99.90
3086;DHT22;52812;48.960;9.108;2024-03-22T06:01:38;6.40;99.90
3086;DHT22;52812;48.960;9.108;2024-03-22T06:04:04;6.40;99.90
3086;DHT22;52812;48.960;9.108;2024-03-22T06:06:32;6.40;99.90
3086;DHT22;52812;48.960;9.108;2024-03-22T06:08:58;6.40;99.90
3086;DHT22;52812;48.960;9.108;2024-03-22T06:11:26;6.50;99.90
3086;DHT22;52812;48.960;9.108;2024-03-22T06:13:51;6.50;99.90
3086;DHT22;52812;48.960;9.108;2024-03-22T06:16:17;6.60;99.90
3086;DHT22;52812;48.960;9.108;2024-03-22T06:18:43;6.70;99.90
3086;DHT22;52812;48.960;9.108;2024-03-22T06:21:08;6.70;99.90
3086;DHT22;52812;48.960;9.108;2024-03-22T06:23:34;6.70;99.90
3086;DHT22;52812;48.960;9.108;2024-03-22T06:26:00;6.80;99.90
3086;DHT22;52812;48.960;9.108;2024-03-22T06:28:28;7.10;99.90
3086;DHT22;52812;48.960;9.108;2024-03-22T06:30:53;7.40;99.90
3086;DHT22;52812;48.960;9.108;2024-03-22T06:33:20;7.70;99.90
3086;DHT22;52812;48.960;9.108;2024-03-22T06:35:46;8.10;99.90
3086;DHT22;52812;48.960;9.108;2024-03-22T06:38:12;8.50;99.90
3086;DHT22;52812;48.960;9.108;2024-03-22T06:40:38;8.70;99.90
3086;DHT22;52812;48.960;9.108;2024-03-22T06:43:04;8.80;99.90
3086;DHT22;52812;48.960;9.108;2024-03-22T06:45:29;9.00;99.90
3086;DHT22;52812;48.960;9.108;2024-03-22T06:47:55;9.00;99.90
3086;DHT22;52812;48.960;9.108;2024-03-22T06:50:21;9.00;99.90
3086;DHT22;52812;48.960;9.108;2024-03-22T06:52:56;9.30;99.90
3086;DHT22;52812;48.960;9.108;2024-03-22T06:55:22;9.80;99.90
3086;DHT22;52812;48.960;9.108;2024-03-22T06:57:48;10.30;99.90
3086;DHT22;52812;48.960;9.108;2024-03-22T07:00:15;10.60;99.90
3086;DHT22;52812;48.960;9.108;2024-03-22T07:02:41;10.80;99.90
3086;DHT22;52812;48.960;9.108;2024-03-22T07:05:08;11.20;99.90
3086;DHT22;52812;48.960;9.108;2024-03-22T07:07:37;11.60;99.90
3086;DHT22;52812;48.960;9.108;2024-03-22T07:10:04;11.80;99.90
3086;DHT22;52812;48.960;9.108;2024-03-22T07:12:32;11.60;99.90
3086;DHT22;52812;48.960;9.108;2024-03-22T07:15:00;11.50;99.90
3086;DHT22;52812;48.960;9.108;2024-03-22T07:17:25;11.60;99.90
3086;DHT22;52812;48.960;9.108;2024-03-22T07:19:51;11.70;99.90
3086;DHT22;52812;48.960;9.108;2024-03-22T07:22:18;12.30;99.90
3086;DHT22;52812;48.960;9.108;2024-03-22T07:24:43;12.50;99.90
3086;DHT22;52812;48.960;9.108;2024-03-22T07:27:10;12.80;99.90
3086;DHT22;52812;48.960;9.108;2024-03-22T07:29:36;12.70;99.90
3086;DHT22;52812;48.960;9.108;2024-03-22T07:32:01;12.70;99.90
3086;DHT22;52812;48.960;9.108;2024-03-22T07:34:29;12.50;99.90
3086;DHT22;52812;48.960;9.108;2024-03-22T07:36:54;12.20;99.90
3086;DHT22;52812;48.960;9.108;2024-03-22T07:39:20;12.40;99.90
3086;DHT22;52812;48.960;9.108;2024-03-22T07:41:46;12.60;99.90
3086;DHT22;52812;48.960;9.108;2024-03-22T07:44:11;12.90;99.90
3086;DHT22;52812;48.960;9.108;2024-03-22T07:46:37;13.10;99.90
3086;DHT22;52812;48.960;9.108;2024-03-22T07:49:02;13.20;99.90
3086;DHT22;52812;48.960;9.108;2024-03-22T07:51:30;13.30;99.90
3086;DHT22;52812;48.960;9.108;2024-03-22T07:53:55;13.60;99.90
3086;DHT22;52812;48.960;9.108;2024-03-22T07:56:21;14.00;99.90
3086;DHT22;52812;48.960;9.108;2024-03-22T07:58:47;14.00;99.90
3086;DHT22;52812;48.960;9.108;2024-03-22T08:01:13;14.10;99.90
3086;DHT22;52812;48.960;9.108;2024-03-22T08:03:38;14.20;99.90
3086;DHT22;52812;48.960;9.108;2024-03-22T08:06:04;14.50;99.90
3086;DHT22;52812;48.960;9.108;2024-03-22T08:08:30;14.70;99.90
3086;DHT22;52812;48.960;9.108;2024-03-22T08:10:56;14.80;99.90
3086;DHT22;52812;48.960;9.108;2024-03-22T08:13:22;15.10;99.90
3086;DHT22;52812;48.960;9.108;2024-03-22T08:15:47;15.10;99.90
3086;DHT22;52812;48.960;9.108;2024-03-22T08:18:13;14.60;99.90
3086;DHT22;52812;48.960;9.108;2024-03-22T08:20:39;14.40;99.90
3086;DHT22;52812;48.960;9.108;2024-03-22T08:23:05;14.30;99.90
3086;DHT22;52812;48.960;9.108;2024-03-22T08:25:31;14.10;99.90
3086;DHT22;52812;48.960;9.108;2024-03-22T08:27:57;13.90;99.90
3086;DHT22;52812;48.960;9.108;2024-03-22T08:30:24;13.90;99.90
3086;DHT22;52812;48.960;9.108;2024-03-22T08:32:50;14.00;99.90
3086;DHT22;52812;48.960;9.108;2024-03-22T08:35:16;14.00;99.90
3086;DHT22;52812;48.960;9.108;2024-03-22T08:37:42;13.80;99.90
3086;DHT22;52812;48.960;9.108;2024-03-22T08:40:08;13.80;99.90
3086;DHT22;52812;48.960;9.108;2024-03-22T08:42:34;13.80;99.90
3086;DHT22;52812;48.960;9.108;2024-03-22T08:44:59;13.90;99.90
3086;DHT22;52812;48.960;9.108;2024-03-22T08:47:25;13.90;99.90
3086;DHT22;52812;48.960;9.108;2024-03-22T08:49:51;13.90;99.90
3086;DHT22;52812;48.960;9.108;2024-03-22T08:52:16;14.00;99.90
3086;DHT22;52812;48.960;9.108;2024-03-22T08:54:42;14.10;99.90
3086;DHT22;52812;48.960;9.108;2024-03-22T08:57:08;14.30;99.90
3086;DHT22;52812;48.960;9.108;2024-03-22T08:59:33;14.50;99.90
3086;DHT22;52812;48.960;9.108;2024-03-22T09:02:00;14.50;99.90
3086;DHT22;52812;48.960;9.108;2024-03-22T09:04:26;14.60;99.90
3086;DHT22;52812;48.960;9.108;2024-03-22T09:06:51;14.70;99.90
3086;DHT22;52812;48.960;9.108;2024-03-22T09:09:17;14.80;99.90
3086;DHT22;52812;48.960;9.108;2024-03-22T09:11:43;14.90;99.90
3086;DHT22;52812;48.960;9.108;2024-03-22T09:14:09;14.80;99.90
3086;DHT22;52812;48.960;9.108;2024-03-22T09:16:35;14.70;99.90
3086;DHT22;52812;48.960;9.108;2024-03-22T09:19:00;14.80;99.90
3086;DHT22;52812;48.960;9.108;2024-03-22T09:21:26;15.20;99.90
3086;DHT22;52812;48.960;9.108;2024-03-22T09:23:52;15.60;99.90
3086;DHT22;52812;48.960;9.108;2024-03-22T09:26:17;15.80;99.90
3086;DHT22;52812;48.960;9.108;2024-03-22T09:28:46;16.10;99.90
3086;DHT22;52812;48.960;9.108;2024-03-22T09:31:11;16.30;99.90
3086;DHT22;52812;48.960;9.108;2024-03-22T09:33:37;16.30;99.90
3086;DHT22;52812;48.960;9.108;2024-03-22T09:36:03;16.40;99.90
3086;DHT22;52812;48.960;9.108;2024-03-22T09:38:29;16.50;99.90
3086;DHT22;52812;48.960;9.108;2024-03-22T09:40:55;16.50;99.90
3086;DHT22;52812;48.960;9.108;2024-03-22T09:43:21;16.40;99.90
3086;DHT22;52812;48.960;9.108;2024-03-22T09:45:48;16.60;99.90
3086;DHT22;52812;48.960;9.108;2024-03-22T09:48:18;16.90;99.90
3086;DHT22;52812;48.960;9.108;2024-03-22T09:50:48;17.10;99.90
3086;DHT22;52812;48.960;9.108;2024-03-22T09:53:18;17.20;99.90
3086;DHT22;52812;48.960;9.108;2024-03-22T09:55:46;17.20;99.90
3086;DHT22;52812;48.960;9.108;2024-03-22T09:58:12;17.10;99.90
3086;DHT22;52812;48.960;9.108;2024-03-22T10:00:38;17.00;99.90
3086;DHT22;52812;48.960;9.108;2024-03-22T10:03:04;17.00;99.90
3086;DHT22;52812;48.960;9.108;2024-03-22T10:05:31;17.10;99.90
3086;DHT22;52812;48.960;9.108;2024-03-22T10:07:56;17.10;99.90
3086;DHT22;52812;48.960;9.108;2024-03-22T10:10:22;17.20;99.90
3086;DHT22;52812;48.960;9.108;2024-03-22T10:12:48;17.10;99.90
3086;DHT22;52812;48.960;9.108;2024-03-22T10:15:14;17.20;99.90
3086;DHT22;52812;48.960;9.108;2024-03-22T10:17:41;17.30;99.90
3086;DHT22;52812;48.960;9.108;2024-03-22T10:20:07;17.40;99.90
3086;DHT22;52812;48.960;9.108;2024-03-22T10:22:50;17.60;99.90
3086;DHT22;52812;48.960;9.108;2024-03-22T10:25:20;17.90;99.90
3086;DHT22;52812;48.960;9.108;2024-03-22T10:27:47;17.90;99.90
3086;DHT22;52812;48.960;9.108;2024-03-22T10:30:15;17.80;99.90
3086;DHT22;52812;48.960;9.108;2024-03-22T10:32:42;18.00;99.90
3086;DHT22;52812;48.960;9.108;2024-03-22T10:35:11;18.20;99.90
3086;DHT22;52812;48.960;9.108;2024-03-22T10:37:39;18.30;99.90
3086;DHT22;52812;48.960;9.108;2024-03-22T10:40:05;18.10;99.90
3086;DHT22;52812;48.960;9.108;2024-03-22T10:42:42;18.00;99.90
3086;DHT22;52812;48.960;9.108;2024-03-22T10:45:09;18.00;99.90
3086;DHT22;52812;48.960;9.108;2024-03-22T10:47:36;18.20;99.90
3086;DHT22;52812;48.960;9.108;2024-03-22T10:50:06;18.20;99.90
3086;DHT22;52812;48.960;9.108;2024-03-22T10:52:37;18.40;99.90
3086;DHT22;52812;48.960;9.108;2024-03-22T10:55:07;18.80;99.90
3086;DHT22;52812;48.960;9.108;2024-03-22T10:57:34;19.00;99.90
3086;DHT22;52812;48.960;9.108;2024-03-22T11:00:09;19.10;99.90
3086;DHT22;52812;48.960;9.108;2024-03-22T11:02:43;19.20;99.90
3086;DHT22;52812;48.960;9.108;2024-03-22T11:05:17;19.40;99.90
3086;DHT22;52812;48.960;9.108;2024-03-22T11:07:44;19.30;99.90
3086;DHT22;52812;48.960;9.108;2024-03-22T11:10:12;19.20;99.90
3086;DHT22;52812;48.960;9.108;2024-03-22T11:12:41;19.10;99.90
3086;DHT22;52812;48.960;9.108;2024-03-22T11:15:07;18.90;99.90
3086;DHT22;52812;48.960;9.108;2024-03-22T11:17:34;18.90;99.90
3086;DHT22;52812;48.960;9.108;2024-03-22T11:20:00;18.80;99.90
3086;DHT22;52812;48.960;9.108;2024-03-22T11:22:26;18.80;99.90
3086;DHT22;52812;48.960;9.108;2024-03-22T11:24:55;18.80;99.90
3086;DHT22;52812;48.960;9.108;2024-03-22T11:27:20;18.90;99.90
3086;DHT22;52812;48.960;9.108;2024-03-22T11:29:46;18.80;99.90
3086;DHT22;52812;48.960;9.108;2024-03-22T11:32:12;18.90;99.90
3086;DHT22;52812;48.960;9.108;2024-03-22T11:34:38;18.90;99.90
3086;DHT22;52812;48.960;9.108;2024-03-22T11:37:05;19.10;99.90
3086;DHT22;52812;48.960;9.108;2024-03-22T11:39:32;19.20;99.90
3086;DHT22;52812;48.960;9.108;2024-03-22T11:42:00;19.10;99.90
3086;DHT22;52812;48.960;9.108;2024-03-22T11:44:26;18.90;99.90
3086;DHT22;52812;48.960;9.108;2024-03-22T11:46:52;18.90;99.90
3086;DHT22;52812;48.960;9.108;2024-03-22T11:49:18;18.70;99.90
3086;DHT22;52812;48.960;9.108;2024-03-22T11:51:45;18.50;99.90
3086;DHT22;52812;48.960;9.108;2024-03-22T11:54:11;18.50;99.90
3086;DHT22;52812;48.960;9.108;2024-03-22T11:56:36;18.50;99.90
3086;DHT22;52812;48.960;9.108;2024-03-22T11:59:02;18.60;99.90
3086;DHT22;52812;48.960;9.108;2024-03-22T12:01:32;18.70;99.90
3086;DHT22;52812;48.960;9.108;2024-03-22T12:03:58;18.60;99.90
3086;DHT22;52812;48.960;9.108;2024-03-22T12:06:24;18.60;99.90
3086;DHT22;52812;48.960;9.108;2024-03-22T12:08:50;18.60;99.90
3086;DHT22;52812;48.960;9.108;2024-03-22T12:11:16;18.80;99.90
3086;DHT22;52812;48.960;9.108;2024-03-22T12:13:41;19.00;99.90
3086;DHT22;52812;48.960;9.108;2024-03-22T12:16:07;19.00;99.90
3086;DHT22;52812;48.960;9.108;2024-03-22T12:18:33;19.10;99.90
3086;DHT22;52812;48.960;9.108;2024-03-22T12:20:59;19.30;99.90
3086;DHT22;52812;48.960;9.108;2024-03-22T12:23:25;19.40;99.90
3086;DHT22;52812;48.960;9.108;2024-03-22T12:25:52;19.40;99.90
3086;DHT22;52812;48.960;9.108;2024-03-22T12:28:21;19.40;99.90
3086;DHT22;52812;48.960;9.108;2024-03-22T12:30:47;19.40;99.90
3086;DHT22;52812;48.960;9.108;2024-03-22T12:33:13;19.50;99.90
3086;DHT22;52812;48.960;9.108;2024-03-22T12:35:42;19.50;99.90
3086;DHT22;52812;48.960;9.108;2024-03-22T12:38:08;19.50;99.90
3086;DHT22;52812;48.960;9.108;2024-03-22T12:40:39;19.30;99.90
3086;DHT22;52812;48.960;9.108;2024-03-22T12:43:05;19.30;99.90
3086;DHT22;52812;48.960;9.108;2024-03-22T12:45:31;19.30;99.90
3086;DHT22;52812;48.960;9.108;2024-03-22T12:47:58;19.30;99.90
3086;DHT22;52812;48.960;9.108;2024-03-22T12:50:24;19.40;99.90
3086;DHT22;52812;48.960;9.108;2024-03-22T12:52:50;19.50;99.90
3086;DHT22;52812;48.960;9.108;2024-03-22T12:55:15;19.60;99.90
3086;DHT22;52812;48.960;9.108;2024-03-22T12:57:41;19.70;99.90
3086;DHT22;52812;48.960;9.108;2024-03-22T13:00:08;19.80;99.90
3086;DHT22;52812;48.960;9.108;2024-03-22T13:02:41;19.40;99.90
3086;DHT22;52812;48.960;9.108;2024-03-22T13:05:07;19.50;99.90
3086;DHT22;52812;48.960;9.108;2024-03-22T13:07:33;19.20;99.90
3086;DHT22;52812;48.960;9.108;2024-03-22T13:09:59;19.10;99.90
3086;DHT22;52812;48.960;9.108;2024-03-22T13:12:28;19.20;99.90
3086;DHT22;52812;48.960;9.108;2024-03-22T13:14:57;19.20;99.90
3086;DHT22;52812;48.960;9.108;2024-03-22T13:17:22;19.40;99.90
3086;DHT22;52812;48.960;9.108;2024-03-22T13:19:49;19.30;99.90
3086;DHT22;52812;48.960;9.108;2024-03-22T13:22:15;19.30;99.90
3086;DHT22;52812;48.960;9.108;2024-03-22T13:24:46;19.60;99.90
3086;DHT22;52812;48.960;9.108;2024-03-22T13:27:13;19.60;99.90
3086;DHT22;52812;48.960;9.108;2024-03-22T13:29:42;19.60;99.90
3086;DHT22;52812;48.960;9.108;2024-03-22T13:32:08;19.30;99.90
3086;DHT22;52812;48.960;9.108;2024-03-22T13:34:37;19.40;99.90
3086;DHT22;52812;48.960;9.108;2024-03-22T13:37:03;19.40;99.90
3086;DHT22;52812;48.960;9.108;2024-03-22T13:39:29;19.50;99.90
3086;DHT22;52812;48.960;9.108;2024-03-22T13:41:58;19.60;99.90
3086;DHT22;52812;48.960;9.108;2024-03-22T13:44:24;19.50;99.90
3086;DHT22;52812;48.960;9.108;2024-03-22T13:46:50;19.70;99.90
3086;DHT22;52812;48.960;9.108;2024-03-22T13:49:17;19.40;99.90
3086;DHT22;52812;48.960;9.108;2024-03-22T13:51:44;19.10;99.90
3086;DHT22;52812;48.960;9.108;2024-03-22T13:54:11;18.90;99.90
3086;DHT22;52812;48.960;9.108;2024-03-22T13:56:37;18.80;99.90
3086;DHT22;52812;48.960;9.108;2024-03-22T13:59:06;18.90;99.90
3086;DHT22;52812;48.960;9.108;2024-03-22T14:01:34;18.90;99.90
3086;DHT22;52812;48.960;9.108;2024-03-22T14:03:59;18.90;99.90
3086;DHT22;52812;48.960;9.108;2024-03-22T14:06:25;18.70;99.90
3086;DHT22;52812;48.960;9.108;2024-03-22T14:08:51;18.70;99.90
3086;DHT22;52812;48.960;9.108;2024-03-22T14:11:20;18.70;99.90
3086;DHT22;52812;48.960;9.108;2024-03-22T14:13:46;18.70;99.90
3086;DHT22;52812;48.960;9.108;2024-03-22T14:16:11;18.90;99.90
3086;DHT22;52812;48.960;9.108;2024-03-22T14:18:37;18.80;99.90
3086;DHT22;52812;48.960;9.108;2024-03-22T14:21:03;18.70;99.90
3086;DHT22;52812;48.960;9.108;2024-03-22T14:23:28;18.50;99.90
3086;DHT22;52812;48.960;9.108;2024-03-22T14:25:57;18.40;99.90
3086;DHT22;52812;48.960;9.108;2024-03-22T14:28:23;18.30;99.90
3086;DHT22;52812;48.960;9.108;2024-03-22T14:30:48;18.10;99.90
3086;DHT22;52812;48.960;9.108;2024-03-22T14:33:14;18.00;99.90
3086;DHT22;52812;48.960;9.108;2024-03-22T14:35:40;17.80;99.90
3086;DHT22;52812;48.960;9.108;2024-03-22T14:38:05;17.70;99.90
3086;DHT22;52812;48.960;9.108;2024-03-22T14:40:31;17.50;99.90
3086;DHT22;52812;48.960;9.108;2024-03-22T14:43:02;17.50;99.90
3086;DHT22;52812;48.960;9.108;2024-03-22T14:45:28;17.50;99.90
3086;DHT22;52812;48.960;9.108;2024-03-22T14:47:53;17.60;99.90
3086;DHT22;52812;48.960;9.108;2024-03-22T14:50:19;17.60;99.90
3086;DHT22;52812;48.960;9.108;2024-03-22T14:52:48;17.60;99.90
3086;DHT22;52812;48.960;9.108;2024-03-22T14:55:13;17.50;99.90
3086;DHT22;52812;48.960;9.108;2024-03-22T14:57:39;17.50;99.90
3086;DHT22;52812;48.960;9.108;2024-03-22T15:00:06;17.40;99.90
3086;DHT22;52812;48.960;9.108;2024-03-22T15:02:36;17.50;99.90
3086;DHT22;52812;48.960;9.108;2024-03-22T15:05:01;17.40;99.90
3086;DHT22;52812;48.960;9.108;2024-03-22T15:07:27;17.40;99.90
3086;DHT22;52812;48.960;9.108;2024-03-22T15:09:53;17.30;99.90
3086;DHT22;52812;48.960;9.108;2024-03-22T15:12:19;17.30;99.90
3086;DHT22;52812;48.960;9.108;2024-03-22T15:14:45;17.30;99.90
3086;DHT22;52812;48.960;9.108;2024-03-22T15:17:10;17.30;99.90
3086;DHT22;52812;48.960;9.108;2024-03-22T15:19:37;17.30;99.90
3086;DHT22;52812;48.960;9.108;2024-03-22T15:22:03;17.20;99.90
3086;DHT22;52812;48.960;9.108;2024-03-22T15:24:29;17.10;99.90
3086;DHT22;52812;48.960;9.108;2024-03-22T15:26:55;17.10;99.90
3086;DHT22;52812;48.960;9.108;2024-03-22T15:29:21;17.00;99.90
3086;DHT22;52812;48.960;9.108;2024-03-22T15:31:46;16.90;99.90
3086;DHT22;52812;48.960;9.108;2024-03-22T15:34:12;16.90;99.90
3086;DHT22;52812;48.960;9.108;2024-03-22T15:36:37;16.80;99.90
3086;DHT22;52812;48.960;9.108;2024-03-22T15:39:03;16.70;99.90
3086;DHT22;52812;48.960;9.108;2024-03-22T15:41:30;16.70;99.90
3086;DHT22;52812;48.960;9.108;2024-03-22T15:43:56;16.60;99.90
3086;DHT22;52812;48.960;9.108;2024-03-22T15:46:21;16.60;99.90